sensor_id;sensor_type;location;lat;lon;timestamp;temperature;humidity
20442;DHT22;10380;52.102;20.614;2023-04-30T00:00:27;13.20;99.90
20442;DHT22;10380;52.102;20.614;2023-04-30T00:02:54;13.10;99.90
20442;DHT22;10380;52.102;20.614;2023-04-30T00:05:21;13.00;99.90
20442;DHT22;10380;52.102;20.614;2023-04-30T00:07:48;13.10;99.90
20442;DHT22;10380;52.102;20.614;2023-04-30T00:10:15;13.10;99.90
20442;DHT22;10380;52.102;20.614;2023-04-30T00:12:42;13.00;99.90
20442;DHT22;10380;52.102;20.614;2023-04-30T00:15:09;13.10;99.90
20442;DHT22;10380;52.102;20.614;2023-04-30T00:17:36;13.00;99.90
20442;DHT22;10380;52.102;20.614;2023-04-30T00:20:03;13.00;99.90
20442;DHT22;10380;52.102;20.614;2023-04-30T00:22:30;13.00;99.90
20442;DHT22;10380;52.102;20.614;2023-04-30T00:24:59;12.90;99.90
20442;DHT22;10380;52.102;20.614;2023-04-30T00:27:26;12.90;99.90
20442;DHT22;10380;52.102;20.614;2023-04-30T00:29:53;12.90;99.90
20442;DHT22;10380;52.102;20.614;2023-04-30T00:32:21;12.90;99.90
20442;DHT22;10380;52.102;20.614;2023-04-30T00:34:48;12.90;99.90
20442;DHT22;10380;52.102;20.614;2023-04-30T00:37:15;13.00;99.90
20442;DHT22;10380;52.102;20.614;2023-04-30T00:39:42;13.00;99.90
20442;DHT22;10380;52.102;20.614;2023-04-30T00:42:09;12.90;99.90
20442;DHT22;10380;52.102;20.614;2023-04-30T00:44:37;12.90;99.90
20442;DHT22;10380;52.102;20.614;2023-04-30T00:47:04;12.80;99.90
20442;DHT22;10380;52.102;20.614;2023-04-30T00:49:30;12.70;99.90
20442;DHT22;10380;52.102;20.614;2023-04-30T00:51:58;12.70;99.90
20442;DHT22;10380;52.102;20.614;2023-04-30T00:54:25;12.60;99.90
20442;DHT22;10380;52.102;20.614;2023-04-30T00:56:52;12.60;99.90
20442;DHT22;10380;52.102;20.614;2023-04-30T00:59:18;12.60;99.90
20442;DHT22;10380;52.102;20.614;2023-04-30T01:01:46;12.60;99.90
20442;DHT22;10380;52.102;20.614;2023-04-30T01:04:13;12.60;99.90
20442;DHT22;10380;52.102;20.614;2023-04-30T01:12:49;12.60;99.90
20442;DHT22;10380;52.102;20.614;2023-04-30T01:15:27;12.50;99.90
20442;DHT22;10380;52.102;20.614;2023-04-30T01:18:04;12.50;99.90
20442;DHT22;10380;52.102;20.614;2023-04-30T01:20:34;12.50;99.90
20442;DHT22;10380;52.102;20.614;2023-04-30T01:23:27;12.50;99.90
20442;DHT22;10380;52.102;20.614;2023-04-30T01:28:52;12.40;99.90
20442;DHT22;10380;52.102;20.614;2023-04-30T01:31:20;12.30;99.90
20442;DHT22;10380;52.102;20.614;2023-04-30T01:33:49;12.30;99.90
20442;DHT22;10380;52.102;20.614;2023-04-30T01:42:07;12.20;99.90
20442;DHT22;10380;52.102;20.614;2023-04-30T01:52:59;12.10;99.90
20442;DHT22;10380;52.102;20.614;2023-04-30T01:55:36;12.10;99.90
20442;DHT22;10380;52.102;20.614;2023-04-30T01:58:10;12.10;99.90
20442;DHT22;10380;52.102;20.614;2023-04-30T02:00:38;12.10;99.90
20442;DHT22;10380;52.102;20.614;2023-04-30T02:03:05;12.10;99.90
20442;DHT22;10380;52.102;20.614;2023-04-30T02:05:32;12.10;99.90
20442;DHT22;10380;52.102;20.614;2023-04-30T02:07:59;12.10;99.90
20442;DHT22;10380;52.102;20.614;2023-04-30T02:10:27;12.20;99.90
20442;DHT22;10380;52.102;20.614;2023-04-30T02:12:55;12.10;99.90
20442;DHT22;10380;52.102;20.614;2023-04-30T02:15:22;12.10;99.90
20442;DHT22;10380;52.102;20.614;2023-04-30T02:17:49;12.10;99.90
20442;DHT22;10380;52.102;20.614;2023-04-30T02:20:17;11.90;99.90
20442;DHT22;10380;52.102;20.614;2023-04-30T02:22:44;11.90;99.90
20442;DHT22;10380;52.102;20.614;2023-04-30T02:25:11;11.80;99.90
20442;DHT22;10380;52.102;20.614;2023-04-30T02:27:40;11.80;99.90
20442;DHT22;10380;52.102;20.614;2023-04-30T02:30:07;11.70;99.90
20442;DHT22;10380;52.102;20.614;2023-04-30T02:32:34;11.70;99.90
20442;DHT22;10380;52.102;20.614;2023-04-30T02:35:01;11.60;99.90
20442;DHT22;10380;52.102;20.614;2023-04-30T02:37:28;11.50;99.90
20442;DHT22;10380;52.102;20.614;2023-04-30T02:39:56;11.40;99.90
20442;DHT22;10380;52.102;20.614;2023-04-30T02:42:23;11.40;99.90
20442;DHT22;10380;52.102;20.614;2023-04-30T02:44:50;11.30;99.90
20442;DHT22;10380;52.102;20.614;2023-04-30T02:47:16;11.30;99.90
20442;DHT22;10380;52.102;20.614;2023-04-30T02:49:43;11.30;99.90
20442;DHT22;10380;52.102;20.614;2023-04-30T02:52:10;11.30;99.90
20442;DHT22;10380;52.102;20.614;2023-04-30T02:54:37;11.20;99.90
20442;DHT22;10380;52.102;20.614;2023-04-30T02:57:04;11.20;99.90
20442;DHT22;10380;52.102;20.614;2023-04-30T02:59:31;11.10;99.90
20442;DHT22;10380;52.102;20.614;2023-04-30T03:01:58;11.10;99.90
20442;DHT22;10380;52.102;20.614;2023-04-30T03:04:25;11.00;99.90
20442;DHT22;10380;52.102;20.614;2023-04-30T03:06:52;11.00;99.90
20442;DHT22;10380;52.102;20.614;2023-04-30T03:09:18;11.00;99.90
20442;DHT22;10380;52.102;20.614;2023-04-30T03:11:45;11.00;99.90
20442;DHT22;10380;52.102;20.614;2023-04-30T03:14:12;10.90;99.90
20442;DHT22;10380;52.102;20.614;2023-04-30T03:16:39;10.90;99.90
20442;DHT22;10380;52.102;20.614;2023-04-30T03:19:06;10.90;99.90
20442;DHT22;10380;52.102;20.614;2023-04-30T03:21:33;10.90;99.90
20442;DHT22;10380;52.102;20.614;2023-04-30T03:24:00;10.90;99.90
20442;DHT22;10380;52.102;20.614;2023-04-30T03:26:27;10.90;99.90
20442;DHT22;10380;52.102;20.614;2023-04-30T03:28:54;10.80;99.90
20442;DHT22;10380;52.102;20.614;2023-04-30T03:31:21;10.80;99.90
20442;DHT22;10380;52.102;20.614;2023-04-30T03:33:48;10.70;99.90
20442;DHT22;10380;52.102;20.614;2023-04-30T03:36:15;10.60;99.90
20442;DHT22;10380;52.102;20.614;2023-04-30T03:38:42;10.50;99.90
20442;DHT22;10380;52.102;20.614;2023-04-30T03:41:09;10.50;99.90
20442;DHT22;10380;52.102;20.614;2023-04-30T03:43:36;10.40;99.90
20442;DHT22;10380;52.102;20.614;2023-04-30T03:46:03;10.30;99.90
20442;DHT22;10380;52.102;20.614;2023-04-30T03:48:31;10.30;99.90
20442;DHT22;10380;52.102;20.614;2023-04-30T03:50:57;10.20;99.90
20442;DHT22;10380;52.102;20.614;2023-04-30T03:53:24;10.20;99.90
20442;DHT22;10380;52.102;20.614;2023-04-30T03:55:53;10.20;99.90
20442;DHT22;10380;52.102;20.614;2023-04-30T03:58:20;10.20;99.90
20442;DHT22;10380;52.102;20.614;2023-04-30T04:00:47;10.20;99.90
20442;DHT22;10380;52.102;20.614;2023-04-30T04:03:15;10.20;99.90
20442;DHT22;10380;52.102;20.614;2023-04-30T04:05:42;10.10;99.90
20442;DHT22;10380;52.102;20.614;2023-04-30T04:08:09;10.10;99.90
20442;DHT22;10380;52.102;20.614;2023-04-30T04:10:37;10.10;99.90
20442;DHT22;10380;52.102;20.614;2023-04-30T04:13:05;10.00;99.90
20442;DHT22;10380;52.102;20.614;2023-04-30T04:15:33;10.10;99.90
20442;DHT22;10380;52.102;20.614;2023-04-30T04:18:00;10.10;99.90
20442;DHT22;10380;52.102;20.614;2023-04-30T04:20:27;10.00;99.90
20442;DHT22;10380;52.102;20.614;2023-04-30T04:22:55;10.00;99.90
20442;DHT22;10380;52.102;20.614;2023-04-30T04:25:23;10.00;99.90
20442;DHT22;10380;52.102;20.614;2023-04-30T04:27:51;10.00;99.90
20442;DHT22;10380;52.102;20.614;2023-04-30T04:30:18;10.00;99.90
20442;DHT22;10380;52.102;20.614;2023-04-30T04:32:45;10.00;99.90
20442;DHT22;10380;52.102;20.614;2023-04-30T04:35:15;10.00;99.90
20442;DHT22;10380;52.102;20.614;2023-04-30T04:37:43;10.00;99.90
20442;DHT22;10380;52.102;20.614;2023-04-30T04:40:10;10.10;99.90
20442;DHT22;10380;52.102;20.614;2023-04-30T04:42:38;10.10;99.90
20442;DHT22;10380;52.102;20.614;2023-04-30T04:45:06;10.20;99.90
20442;DHT22;10380;52.102;20.614;2023-04-30T04:47:33;10.20;99.90
20442;DHT22;10380;52.102;20.614;2023-04-30T04:50:01;10.20;99.90
20442;DHT22;10380;52.102;20.614;2023-04-30T04:52:28;10.20;99.90
20442;DHT22;10380;52.102;20.614;2023-04-30T04:54:55;10.30;99.90
20442;DHT22;10380;52.102;20.614;2023-04-30T04:57:22;10.20;99.90
20442;DHT22;10380;52.102;20.614;2023-04-30T04:59:49;10.20;99.90
20442;DHT22;10380;52.102;20.614;2023-04-30T05:02:16;10.20;99.90
20442;DHT22;10380;52.102;20.614;2023-04-30T05:04:43;10.20;99.90
20442;DHT22;10380;52.102;20.614;2023-04-30T05:07:12;10.20;99.90
20442;DHT22;10380;52.102;20.614;2023-04-30T05:09:39;10.10;99.90
20442;DHT22;10380;52.102;20.614;2023-04-30T05:12:06;10.00;99.90
20442;DHT22;10380;52.102;20.614;2023-04-30T05:14:33;10.00;99.90
20442;DHT22;10380;52.102;20.614;2023-04-30T05:17:00;10.00;99.90
20442;DHT22;10380;52.102;20.614;2023-04-30T05:19:26;10.00;99.90
20442;DHT22;10380;52.102;20.614;2023-04-30T05:21:53;10.10;99.90
20442;DHT22;10380;52.102;20.614;2023-04-30T05:24:20;10.10;99.90
20442;DHT22;10380;52.102;20.614;2023-04-30T05:26:47;10.10;99.90
20442;DHT22;10380;52.102;20.614;2023-04-30T05:29:14;10.10;99.90
20442;DHT22;10380;52.102;20.614;2023-04-30T05:31:41;10.00;99.90
20442;DHT22;10380;52.102;20.614;2023-04-30T05:34:08;10.00;99.90
20442;DHT22;10380;52.102;20.614;2023-04-30T05:36:34;10.00;99.90
20442;DHT22;10380;52.102;20.614;2023-04-30T05:39:01;9.90;99.90
20442;DHT22;10380;52.102;20.614;2023-04-30T05:41:28;9.90;99.90
20442;DHT22;10380;52.102;20.614;2023-04-30T05:43:55;9.80;99.90
20442;DHT22;10380;52.102;20.614;2023-04-30T05:46:22;9.80;99.90
20442;DHT22;10380;52.102;20.614;2023-04-30T05:48:49;9.90;99.90
20442;DHT22;10380;52.102;20.614;2023-04-30T05:51:16;9.80;99.90
20442;DHT22;10380;52.102;20.614;2023-04-30T05:53:42;9.80;99.90
20442;DHT22;10380;52.102;20.614;2023-04-30T05:56:09;9.80;99.90
20442;DHT22;10380;52.102;20.614;2023-04-30T05:58:36;9.70;99.90
20442;DHT22;10380;52.102;20.614;2023-04-30T06:01:03;9.60;99.90
20442;DHT22;10380;52.102;20.614;2023-04-30T06:03:30;9.60;99.90
20442;DHT22;10380;52.102;20.614;2023-04-30T06:05:58;9.70;99.90
20442;DHT22;10380;52.102;20.614;2023-04-30T06:08:25;9.80;99.90
20442;DHT22;10380;52.102;20.614;2023-04-30T06:10:52;9.90;99.90
20442;DHT22;10380;52.102;20.614;2023-04-30T06:13:21;10.00;99.90
20442;DHT22;10380;52.102;20.614;2023-04-30T06:15:48;10.00;99.90
20442;DHT22;10380;52.102;20.614;2023-04-30T06:18:16;10.10;99.90
20442;DHT22;10380;52.102;20.614;2023-04-30T06:20:43;10.10;99.90
20442;DHT22;10380;52.102;20.614;2023-04-30T06:23:10;10.20;99.90
20442;DHT22;10380;52.102;20.614;2023-04-30T06:25:38;10.20;99.90
20442;DHT22;10380;52.102;20.614;2023-04-30T06:28:05;10.30;99.90
20442;DHT22;10380;52.102;20.614;2023-04-30T06:30:33;10.40;99.90
20442;DHT22;10380;52.102;20.614;2023-04-30T06:33:01;10.40;99.90
20442;DHT22;10380;52.102;20.614;2023-04-30T06:35:28;10.50;99.90
20442;DHT22;10380;52.102;20.614;2023-04-30T06:37:55;10.60;99.90
20442;DHT22;10380;52.102;20.614;2023-04-30T06:40:21;10.70;99.90
20442;DHT22;10380;52.102;20.614;2023-04-30T06:42:48;10.80;99.90
20442;DHT22;10380;52.102;20.614;2023-04-30T06:45:15;10.80;99.90
20442;DHT22;10380;52.102;20.614;2023-04-30T06:47:42;10.90;99.90
20442;DHT22;10380;52.102;20.614;2023-04-30T06:50:11;10.90;99.90
20442;DHT22;10380;52.102;20.614;2023-04-30T06:52:38;10.90;99.90
20442;DHT22;10380;52.102;20.614;2023-04-30T06:55:05;11.00;99.90
20442;DHT22;10380;52.102;20.614;2023-04-30T06:57:33;11.00;99.90
20442;DHT22;10380;52.102;20.614;2023-04-30T07:00:00;11.10;99.90
20442;DHT22;10380;52.102;20.614;2023-04-30T07:02:28;11.20;99.90
20442;DHT22;10380;52.102;20.614;2023-04-30T07:04:55;11.30;99.90
20442;DHT22;10380;52.102;20.614;2023-04-30T07:07:21;11.30;99.90
20442;DHT22;10380;52.102;20.614;2023-04-30T07:09:48;11.40;99.90
20442;DHT22;10380;52.102;20.614;2023-04-30T07:12:19;11.40;99.90
20442;DHT22;10380;52.102;20.614;2023-04-30T07:14:45;11.50;99.90
20442;DHT22;10380;52.102;20.614;2023-04-30T07:17:12;11.50;99.90
20442;DHT22;10380;52.102;20.614;2023-04-30T07:19:39;11.50;99.90
20442;DHT22;10380;52.102;20.614;2023-04-30T07:22:06;11.50;99.90
20442;DHT22;10380;52.102;20.614;2023-04-30T07:24:33;11.60;99.90
20442;DHT22;10380;52.102;20.614;2023-04-30T07:27:00;11.50;99.90
20442;DHT22;10380;52.102;20.614;2023-04-30T07:29:29;11.40;99.90
20442;DHT22;10380;52.102;20.614;2023-04-30T07:31:56;11.30;99.90
20442;DHT22;10380;52.102;20.614;2023-04-30T07:34:24;11.30;99.90
20442;DHT22;10380;52.102;20.614;2023-04-30T07:36:51;11.30;99.90
20442;DHT22;10380;52.102;20.614;2023-04-30T07:39:17;11.30;99.90
20442;DHT22;10380;52.102;20.614;2023-04-30T07:41:44;11.30;99.90
20442;DHT22;10380;52.102;20.614;2023-04-30T07:44:11;11.40;99.90
20442;DHT22;10380;52.102;20.614;2023-04-30T07:46:38;11.50;99.90
20442;DHT22;10380;52.102;20.614;2023-04-30T07:49:05;11.60;99.90
20442;DHT22;10380;52.102;20.614;2023-04-30T07:51:32;11.60;99.90
20442;DHT22;10380;52.102;20.614;2023-04-30T07:53:59;11.60;99.90
20442;DHT22;10380;52.102;20.614;2023-04-30T07:56:26;11.70;99.90
20442;DHT22;10380;52.102;20.614;2023-04-30T07:58:53;11.60;99.90
20442;DHT22;10380;52.102;20.614;2023-04-30T08:01:20;11.60;99.90
20442;DHT22;10380;52.102;20.614;2023-04-30T08:03:46;11.70;99.90
20442;DHT22;10380;52.102;20.614;2023-04-30T08:06:13;11.60;99.90
20442;DHT22;10380;52.102;20.614;2023-04-30T08:08:40;11.60;99.90
20442;DHT22;10380;52.102;20.614;2023-04-30T08:11:07;11.70;99.90
20442;DHT22;10380;52.102;20.614;2023-04-30T08:13:34;11.70;99.90
20442;DHT22;10380;52.102;20.614;2023-04-30T08:16:01;11.70;99.90
20442;DHT22;10380;52.102;20.614;2023-04-30T08:18:29;11.70;99.90
20442;DHT22;10380;52.102;20.614;2023-04-30T08:20:58;11.70;99.90
20442;DHT22;10380;52.102;20.614;2023-04-30T08:23:26;11.70;99.90
20442;DHT22;10380;52.102;20.614;2023-04-30T08:25:53;11.70;99.90
20442;DHT22;10380;52.102;20.614;2023-04-30T08:28:19;11.80;99.90
20442;DHT22;10380;52.102;20.614;2023-04-30T08:30:46;11.70;99.90
20442;DHT22;10380;52.102;20.614;2023-04-30T08:33:13;11.70;99.90
20442;DHT22;10380;52.102;20.614;2023-04-30T08:35:40;11.70;99.90
20442;DHT22;10380;52.102;20.614;2023-04-30T08:38:06;11.70;99.90
20442;DHT22;10380;52.102;20.614;2023-04-30T08:40:35;11.80;99.90
20442;DHT22;10380;52.102;20.614;2023-04-30T08:43:17;11.90;99.90
20442;DHT22;10380;52.102;20.614;2023-04-30T08:45:44;11.80;99.90
20442;DHT22;10380;52.102;20.614;2023-04-30T08:48:12;11.90;99.90
20442;DHT22;10380;52.102;20.614;2023-04-30T08:50:40;11.90;99.90
20442;DHT22;10380;52.102;20.614;2023-04-30T08:53:09;12.00;99.90
20442;DHT22;10380;52.102;20.614;2023-04-30T08:55:38;12.00;99.90
20442;DHT22;10380;52.102;20.614;2023-04-30T08:58:07;12.00;99.90
20442;DHT22;10380;52.102;20.614;2023-04-30T09:00:37;12.00;99.90
20442;DHT22;10380;52.102;20.614;2023-04-30T09:03:06;12.00;99.90
20442;DHT22;10380;52.102;20.614;2023-04-30T09:05:34;12.00;99.90
20442;DHT22;10380;52.102;20.614;2023-04-30T09:08:02;12.00;99.90
20442;DHT22;10380;52.102;20.614;2023-04-30T09:10:33;12.00;99.90
20442;DHT22;10380;52.102;20.614;2023-04-30T09:13:08;12.00;99.90
20442;DHT22;10380;52.102;20.614;2023-04-30T09:15:37;11.90;99.90
20442;DHT22;10380;52.102;20.614;2023-04-30T09:18:15;12.00;99.90
20442;DHT22;10380;52.102;20.614;2023-04-30T09:23:20;12.00;99.90
20442;DHT22;10380;52.102;20.614;2023-04-30T09:25:47;12.00;99.90
20442;DHT22;10380;52.102;20.614;2023-04-30T09:28:14;11.90;99.90
20442;DHT22;10380;52.102;20.614;2023-04-30T09:30:42;12.00;99.90
20442;DHT22;10380;52.102;20.614;2023-04-30T09:33:09;12.00;99.90
20442;DHT22;10380;52.102;20.614;2023-04-30T09:35:39;12.10;99.90
20442;DHT22;10380;52.102;20.614;2023-04-30T09:38:07;12.20;99.90
20442;DHT22;10380;52.102;20.614;2023-04-30T09:40:50;12.30;99.90
20442;DHT22;10380;52.102;20.614;2023-04-30T09:43:17;12.40;99.90
20442;DHT22;10380;52.102;20.614;2023-04-30T09:45:45;12.40;99.90
20442;DHT22;10380;52.102;20.614;2023-04-30T09:48:20;12.30;99.90
20442;DHT22;10380;52.102;20.614;2023-04-30T09:50:48;12.30;99.90
20442;DHT22;10380;52.102;20.614;2023-04-30T09:53:16;12.20;99.90
20442;DHT22;10380;52.102;20.614;2023-04-30T09:55:47;12.20;99.90
20442;DHT22;10380;52.102;20.614;2023-04-30T09:58:16;12.30;99.90
20442;DHT22;10380;52.102;20.614;2023-04-30T10:00:46;12.20;99.90
20442;DHT22;10380;52.102;20.614;2023-04-30T10:03:16;12.30;99.90
20442;DHT22;10380;52.102;20.614;2023-04-30T10:05:44;12.30;99.90
20442;DHT22;10380;52.102;20.614;2023-04-30T10:08:28;12.40;99.90
20442;DHT22;10380;52.102;20.614;2023-04-30T10:11:06;12.50;99.90
20442;DHT22;10380;52.102;20.614;2023-04-30T10:13:39;12.50;99.90
20442;DHT22;10380;52.102;20.614;2023-04-30T10:16:10;12.50;99.90
20442;DHT22;10380;52.102;20.614;2023-04-30T10:18:39;12.50;99.90
20442;DHT22;10380;52.102;20.614;2023-04-30T10:21:11;12.60;99.90
20442;DHT22;10380;52.102;20.614;2023-04-30T10:23:39;12.70;99.90
20442;DHT22;10380;52.102;20.614;2023-04-30T10:26:12;12.70;99.90
20442;DHT22;10380;52.102;20.614;2023-04-30T10:28:39;12.70;99.90
20442;DHT22;10380;52.102;20.614;2023-04-30T10:31:07;12.80;99.90
20442;DHT22;10380;52.102;20.614;2023-04-30T10:34:03;12.80;99.90
20442;DHT22;10380;52.102;20.614;2023-04-30T10:36:54;12.80;99.90
20442;DHT22;10380;52.102;20.614;2023-04-30T10:39:23;12.80;99.90
20442;DHT22;10380;52.102;20.614;2023-04-30T10:42:04;12.80;99.90
20442;DHT22;10380;52.102;20.614;2023-04-30T10:44:32;12.80;99.90
20442;DHT22;10380;52.102;20.614;2023-04-30T10:47:01;12.80;99.90
20442;DHT22;10380;52.102;20.614;2023-04-30T10:49:28;12.80;99.90
20442;DHT22;10380;52.102;20.614;2023-04-30T10:51:59;12.80;99.90
20442;DHT22;10380;52.102;20.614;2023-04-30T10:54:31;12.80;99.90
20442;DHT22;10380;52.102;20.614;2023-04-30T10:57:24;12.90;99.90
20442;DHT22;10380;52.102;20.614;2023-04-30T11:05:10;12.80;99.90
20442;DHT22;10380;52.102;20.614;2023-04-30T11:07:49;12.90;99.90
20442;DHT22;10380;52.102;20.614;2023-04-30T11:10:20;13.00;99.50
20442;DHT22;10380;52.102;20.614;2023-04-30T11:12:52;13.10;98.20
20442;DHT22;10380;52.102;20.614;2023-04-30T11:15:20;13.20;98.50
20442;DHT22;10380;52.102;20.614;2023-04-30T11:17:50;13.20;99.20
20442;DHT22;10380;52.102;20.614;2023-04-30T11:20:22;13.20;99.90
20442;DHT22;10380;52.102;20.614;2023-04-30T11:23:09;13.20;99.90
20442;DHT22;10380;52.102;20.614;2023-04-30T11:25:44;13.30;99.90
20442;DHT22;10380;52.102;20.614;2023-04-30T11:28:25;13.20;99.90
20442;DHT22;10380;52.102;20.614;2023-04-30T11:30:54;13.20;99.70
20442;DHT22;10380;52.102;20.614;2023-04-30T11:33:23;13.20;99.90
20442;DHT22;10380;52.102;20.614;2023-04-30T11:35:50;13.30;99.90
20442;DHT22;10380;52.102;20.614;2023-04-30T11:38:21;13.40;99.90
20442;DHT22;10380;52.102;20.614;2023-04-30T11:40:51;13.50;99.90
20442;DHT22;10380;52.102;20.614;2023-04-30T11:43:24;13.60;99.70
20442;DHT22;10380;52.102;20.614;2023-04-30T11:46:09;13.90;99.40
20442;DHT22;10380;52.102;20.614;2023-04-30T11:48:38;14.30;98.80
20442;DHT22;10380;52.102;20.614;2023-04-30T11:53:38;14.90;98.70
20442;DHT22;10380;52.102;20.614;2023-04-30T11:56:05;15.40;97.90
20442;DHT22;10380;52.102;20.614;2023-04-30T11:58:36;15.80;97.80
20442;DHT22;10380;52.102;20.614;2023-04-30T12:01:06;15.90;95.20
20442;DHT22;10380;52.102;20.614;2023-04-30T12:03:46;16.00;94.00
20442;DHT22;10380;52.102;20.614;2023-04-30T12:06:27;16.20;92.10
20442;DHT22;10380;52.102;20.614;2023-04-30T12:08:56;16.60;92.70
20442;DHT22;10380;52.102;20.614;2023-04-30T12:11:25;16.70;93.40
20442;DHT22;10380;52.102;20.614;2023-04-30T12:14:00;16.80;91.50
20442;DHT22;10380;52.102;20.614;2023-04-30T12:16:50;17.30;91.30
20442;DHT22;10380;52.102;20.614;2023-04-30T12:19:18;17.30;87.00
20442;DHT22;10380;52.102;20.614;2023-04-30T12:21:47;17.30;87.40
20442;DHT22;10380;52.102;20.614;2023-04-30T12:24:18;17.50;88.50
20442;DHT22;10380;52.102;20.614;2023-04-30T12:26:45;17.60;87.60
20442;DHT22;10380;52.102;20.614;2023-04-30T12:29:17;17.60;86.70
20442;DHT22;10380;52.102;20.614;2023-04-30T12:31:48;17.50;82.90
20442;DHT22;10380;52.102;20.614;2023-04-30T12:34:15;17.50;84.40
20442;DHT22;10380;52.102;20.614;2023-04-30T12:36:44;17.30;84.10
20442;DHT22;10380;52.102;20.614;2023-04-30T12:39:15;17.50;85.50
20442;DHT22;10380;52.102;20.614;2023-04-30T12:41:47;17.60;84.20
20442;DHT22;10380;52.102;20.614;2023-04-30T12:44:22;17.80;84.80
20442;DHT22;10380;52.102;20.614;2023-04-30T12:46:51;18.40;85.90
20442;DHT22;10380;52.102;20.614;2023-04-30T12:49:27;18.50;83.00
20442;DHT22;10380;52.102;20.614;2023-04-30T12:52:03;18.10;81.30
20442;DHT22;10380;52.102;20.614;2023-04-30T12:54:33;18.20;81.90
20442;DHT22;10380;52.102;20.614;2023-04-30T12:59:33;18.90;82.50
20442;DHT22;10380;52.102;20.614;2023-04-30T13:02:12;19.20;81.60
20442;DHT22;10380;52.102;20.614;2023-04-30T13:04:40;19.10;79.30
20442;DHT22;10380;52.102;20.614;2023-04-30T13:07:08;19.40;80.30
20442;DHT22;10380;52.102;20.614;2023-04-30T13:09:36;19.40;80.00
20442;DHT22;10380;52.102;20.614;2023-04-30T13:12:03;19.40;77.30
20442;DHT22;10380;52.102;20.614;2023-04-30T13:14:30;19.40;76.70
20442;DHT22;10380;52.102;20.614;2023-04-30T13:16:58;19.10;75.00
20442;DHT22;10380;52.102;20.614;2023-04-30T13:19:25;19.30;75.10
20442;DHT22;10380;52.102;20.614;2023-04-30T13:21:52;19.80;75.00
20442;DHT22;10380;52.102;20.614;2023-04-30T13:24:19;19.80;73.70
20442;DHT22;10380;52.102;20.614;2023-04-30T13:26:46;19.70;74.50
20442;DHT22;10380;52.102;20.614;2023-04-30T13:29:13;19.80;75.40
20442;DHT22;10380;52.102;20.614;2023-04-30T13:31:40;20.00;76.40
20442;DHT22;10380;52.102;20.614;2023-04-30T13:34:08;19.80;72.80
20442;DHT22;10380;52.102;20.614;2023-04-30T13:36:35;19.40;70.80
20442;DHT22;10380;52.102;20.614;2023-04-30T13:39:02;19.10;74.00
20442;DHT22;10380;52.102;20.614;2023-04-30T13:41:30;19.10;72.20
20442;DHT22;10380;52.102;20.614;2023-04-30T13:43:57;19.10;72.10
20442;DHT22;10380;52.102;20.614;2023-04-30T13:46:25;19.20;72.50
20442;DHT22;10380;52.102;20.614;2023-04-30T13:48:52;19.20;72.30
20442;DHT22;10380;52.102;20.614;2023-04-30T13:51:19;19.20;72.30
20442;DHT22;10380;52.102;20.614;2023-04-30T13:53:46;19.30;71.90
20442;DHT22;10380;52.102;20.614;2023-04-30T13:56:13;19.20;70.80
20442;DHT22;10380;52.102;20.614;2023-04-30T13:58:41;19.30;71.60
20442;DHT22;10380;52.102;20.614;2023-04-30T14:01:07;19.20;71.30
20442;DHT22;10380;52.102;20.614;2023-04-30T14:03:36;19.30;71.80
20442;DHT22;10380;52.102;20.614;2023-04-30T14:06:03;19.20;71.60
20442;DHT22;10380;52.102;20.614;2023-04-30T14:08:31;18.80;71.40
20442;DHT22;10380;52.102;20.614;2023-04-30T14:11:00;18.70;72.20
20442;DHT22;10380;52.102;20.614;2023-04-30T14:13:27;18.40;71.60
20442;DHT22;10380;52.102;20.614;2023-04-30T14:15:54;18.20;72.20
20442;DHT22;10380;52.102;20.614;2023-04-30T14:18:21;18.20;73.20
20442;DHT22;10380;52.102;20.614;2023-04-30T14:20:48;18.20;73.00
20442;DHT22;10380;52.102;20.614;2023-04-30T14:23:15;18.20;73.10
20442;DHT22;10380;52.102;20.614;2023-04-30T14:25:42;18.20;73.50
20442;DHT22;10380;52.102;20.614;2023-04-30T14:28:10;18.20;73.30
20442;DHT22;10380;52.102;20.614;2023-04-30T14:30:37;18.30;74.50
20442;DHT22;10380;52.102;20.614;2023-04-30T14:33:04;18.50;74.50
20442;DHT22;10380;52.102;20.614;2023-04-30T14:35:31;18.50;73.00
20442;DHT22;10380;52.102;20.614;2023-04-30T14:37:59;18.60;74.00
20442;DHT22;10380;52.102;20.614;2023-04-30T14:40:25;18.80;73.70
20442;DHT22;10380;52.102;20.614;2023-04-30T14:42:52;18.40;72.60
20442;DHT22;10380;52.102;20.614;2023-04-30T14:45:19;18.60;72.00
20442;DHT22;10380;52.102;20.614;2023-04-30T14:47:46;18.50;72.60
20442;DHT22;10380;52.102;20.614;2023-04-30T14:50:13;18.40;72.30
20442;DHT22;10380;52.102;20.614;2023-04-30T14:52:39;18.60;72.10
20442;DHT22;10380;52.102;20.614;2023-04-30T14:55:07;18.50;72.10
20442;DHT22;10380;52.102;20.614;2023-04-30T14:57:34;18.70;72.80
20442;DHT22;10380;52.102;20.614;2023-04-30T15:00:02;18.60;71.60
20442;DHT22;10380;52.102;20.614;2023-04-30T15:02:29;18.40;70.80
20442;DHT22;10380;52.102;20.614;2023-04-30T15:04:56;18.00;71.50
20442;DHT22;10380;52.102;20.614;2023-04-30T15:07:23;17.90;70.90
20442;DHT22;10380;52.102;20.614;2023-04-30T15:09:50;17.80;70.60
20442;DHT22;10380;52.102;20.614;2023-04-30T15:12:18;17.90;71.60
20442;DHT22;10380;52.102;20.614;2023-04-30T15:14:45;17.90;70.80
20442;DHT22;10380;52.102;20.614;2023-04-30T15:17:12;17.90;71.00
20442;DHT22;10380;52.102;20.614;2023-04-30T15:19:39;17.90;71.50
20442;DHT22;10380;52.102;20.614;2023-04-30T15:22:06;17.80;71.00
20442;DHT22;10380;52.102;20.614;2023-04-30T15:24:33;17.70;71.70
20442;DHT22;10380;52.102;20.614;2023-04-30T15:27:00;17.80;72.00
20442;DHT22;10380;52.102;20.614;2023-04-30T15:29:26;17.90;71.90
20442;DHT22;10380;52.102;20.614;2023-04-30T15:31:53;17.90;72.20
20442;DHT22;10380;52.102;20.614;2023-04-30T15:34:21;18.10;72.20
20442;DHT22;10380;52.102;20.614;2023-04-30T15:36:48;18.10;72.00
20442;DHT22;10380;52.102;20.614;2023-04-30T15:39:15;18.00;71.70
20442;DHT22;10380;52.102;20.614;2023-04-30T15:41:43;17.70;71.00
20442;DHT22;10380;52.102;20.614;2023-04-30T15:44:13;17.60;71.50
20442;DHT22;10380;52.102;20.614;2023-04-30T15:46:40;17.40;72.60
20442;DHT22;10380;52.102;20.614;2023-04-30T15:49:07;17.40;73.50
20442;DHT22;10380;52.102;20.614;2023-04-30T15:51:34;17.60;73.60
20442;DHT22;10380;52.102;20.614;2023-04-30T15:54:02;17.50;74.00
20442;DHT22;10380;52.102;20.614;2023-04-30T15:56:28;17.60;74.40
20442;DHT22;10380;52.102;20.614;2023-04-30T15:58:56;17.60;74.10
20442;DHT22;10380;52.102;20.614;2023-04-30T16:01:22;17.50;74.00